createdAt,value
2019-04-01T00:00:15.067Z,11.97
2019-04-01T00:02:41.232Z,10.83
2019-04-01T00:05:07.425Z,10.87
2019-04-01T00:07:33.580Z,11.67
2019-04-01T00:09:59.745Z,11.53
2019-04-01T00:12:25.989Z,11.50
2019-04-01T00:14:52.286Z,12.47
2019-04-01T00:17:18.448Z,13.57
2019-04-01T00:19:44.651Z,14.47
2019-04-01T00:22:10.712Z,14.27
2019-04-01T00:24:36.873Z,12.00
2019-04-01T00:27:03.176Z,11.43
2019-04-01T00:29:29.339Z,11.23
2019-04-01T00:31:55.502Z,12.03
2019-04-01T00:34:21.700Z,11.80
2019-04-01T00:36:47.858Z,12.70
2019-04-01T00:39:14.380Z,11.63
2019-04-01T00:41:51.163Z,11.30
2019-04-01T00:44:17.320Z,11.40
2019-04-01T00:46:43.487Z,11.07
2019-04-01T00:49:09.667Z,11.17
2019-04-01T00:51:35.827Z,11.80
2019-04-01T00:54:01.994Z,11.27
2019-04-01T00:56:28.180Z,10.50
2019-04-01T00:58:54.347Z,10.87
2019-04-01T01:01:20.502Z,10.87
2019-04-01T01:03:46.908Z,10.73
2019-04-01T01:06:13.072Z,9.53
2019-04-01T01:08:39.230Z,9.97
2019-04-01T01:11:05.424Z,11.43
2019-04-01T01:13:31.581Z,10.00
2019-04-01T01:15:57.743Z,10.27
2019-04-01T01:18:23.934Z,10.77
2019-04-01T01:20:50.100Z,11.40
2019-04-01T01:23:16.261Z,10.67
2019-04-01T01:25:42.545Z,11.00
2019-04-01T01:28:08.708Z,11.10
2019-04-01T01:30:34.987Z,11.33
2019-04-01T01:33:01.182Z,10.93
2019-04-01T01:35:27.340Z,11.23
2019-04-01T01:37:53.496Z,10.13
2019-04-01T01:40:19.700Z,11.00
2019-04-01T01:42:45.862Z,11.30
2019-04-01T01:45:12.021Z,10.80
2019-04-01T01:47:38.203Z,11.30
2019-04-01T01:50:05.876Z,10.87
2019-04-01T01:52:32.042Z,11.73
2019-04-01T01:54:58.232Z,10.83
2019-04-01T01:57:24.397Z,9.90
2019-04-01T01:59:50.554Z,11.37
2019-04-01T02:02:16.745Z,10.87
2019-04-01T02:04:42.962Z,11.67
2019-04-01T02:07:09.119Z,10.73
2019-04-01T02:09:35.463Z,11.10
2019-04-01T02:12:01.654Z,11.60
2019-04-01T02:14:27.819Z,9.80
2019-04-01T02:16:54.010Z,11.43
2019-04-01T02:19:20.275Z,11.30
2019-04-01T02:21:46.526Z,11.37
2019-04-01T02:24:12.715Z,11.90
2019-04-01T02:26:38.869Z,12.10
2019-04-01T02:29:05.131Z,12.50
2019-04-01T02:31:31.333Z,12.03
2019-04-01T02:33:57.493Z,10.67
2019-04-01T02:36:23.641Z,11.40
2019-04-01T02:38:49.826Z,12.10
2019-04-01T02:41:15.979Z,12.63
2019-04-01T02:43:42.149Z,11.63
2019-04-01T02:46:08.541Z,11.67
2019-04-01T02:48:34.694Z,11.83
2019-04-01T02:51:00.853Z,11.10
2019-04-01T02:53:27.055Z,11.80
2019-04-01T02:55:53.210Z,12.17
2019-04-01T02:58:19.427Z,12.77
2019-04-01T03:00:45.654Z,12.20
2019-04-01T03:03:11.803Z,13.23
2019-04-01T03:05:37.961Z,12.70
2019-04-01T03:08:04.157Z,12.53
2019-04-01T03:10:30.321Z,12.90
2019-04-01T03:12:56.612Z,12.97
2019-04-01T03:15:22.898Z,12.60
2019-04-01T03:17:49.087Z,13.47
2019-04-01T03:20:15.312Z,14.20
2019-04-01T03:22:41.510Z,15.57
2019-04-01T03:25:07.770Z,17.07
2019-04-01T03:27:33.925Z,16.87
2019-04-01T03:30:00.582Z,14.40
2019-04-01T03:32:27.007Z,15.20
2019-04-01T03:34:53.177Z,13.73
2019-04-01T03:37:19.368Z,12.43
2019-04-01T03:39:45.996Z,12.17
2019-04-01T03:42:12.267Z,15.97
2019-04-01T03:44:38.445Z,29.10
2019-04-01T03:47:04.608Z,17.67
2019-04-01T03:49:30.853Z,15.33
2019-04-01T03:51:57.036Z,14.77
2019-04-01T03:54:23.216Z,16.40
2019-04-01T03:56:49.367Z,16.33
2019-04-01T03:59:15.552Z,16.77
2019-04-01T04:01:42.018Z,16.77
2019-04-01T04:04:08.202Z,17.47
2019-04-01T04:06:34.485Z,17.87
2019-04-01T04:09:02.162Z,18.87
2019-04-01T04:11:28.800Z,17.80
2019-04-01T04:13:54.974Z,21.13
2019-04-01T04:16:21.129Z,29.33
2019-04-01T04:18:47.287Z,21.63
2019-04-01T04:21:13.479Z,18.57
2019-04-01T04:23:39.733Z,17.63
2019-04-01T04:26:05.990Z,15.07
2019-04-01T04:28:32.175Z,14.03
2019-04-01T04:30:58.559Z,13.40
2019-04-01T04:33:24.716Z,12.17
2019-04-01T04:35:50.899Z,13.20
2019-04-01T04:38:17.158Z,13.70
2019-04-01T04:40:43.325Z,13.60
2019-04-01T04:43:09.609Z,15.03
2019-04-01T04:45:35.764Z,14.63
2019-04-01T04:48:01.926Z,13.60
2019-04-01T04:50:28.216Z,12.70
2019-04-01T04:52:54.378Z,13.37
2019-04-01T04:55:20.534Z,12.70
2019-04-01T04:57:46.826Z,18.47
2019-04-01T05:00:13.081Z,18.53
2019-04-01T05:02:39.244Z,19.23
2019-04-01T05:05:06.330Z,19.57
2019-04-01T05:07:32.627Z,19.17
2019-04-01T05:09:58.783Z,18.70
2019-04-01T05:12:25.779Z,22.17
2019-04-01T05:14:51.925Z,20.90
2019-04-01T05:17:18.082Z,22.40
2019-04-01T05:19:44.380Z,21.50
2019-04-01T05:22:11.232Z,20.17
2019-04-01T05:24:37.594Z,19.77
2019-04-01T05:27:03.786Z,18.77
2019-04-01T05:29:29.943Z,19.57
2019-04-01T05:31:58.209Z,30.03
2019-04-01T05:34:27.798Z,18.50
2019-04-01T05:36:53.945Z,17.33
2019-04-01T05:39:20.509Z,17.27
2019-04-01T05:41:46.697Z,18.40
2019-04-01T05:44:12.952Z,16.53
2019-04-01T05:46:39.215Z,18.10
2019-04-01T05:49:05.501Z,17.73
2019-04-01T05:51:31.671Z,21.17
2019-04-01T05:53:57.825Z,17.57
2019-04-01T05:56:24.216Z,15.10
2019-04-01T05:58:50.367Z,15.30
2019-04-01T06:01:18.432Z,13.80
2019-04-01T06:03:44.634Z,14.10
2019-04-01T06:06:10.791Z,11.33
2019-04-01T06:08:37.563Z,12.40
2019-04-01T06:11:03.766Z,12.97
2019-04-01T06:13:29.926Z,13.23
2019-04-01T06:15:56.180Z,13.27
2019-04-01T06:18:22.390Z,13.33
2019-04-01T06:20:49.148Z,14.40
2019-04-01T06:23:15.302Z,14.90
2019-04-01T06:25:41.518Z,14.67
2019-04-01T06:28:07.689Z,13.60
2019-04-01T06:30:33.930Z,14.47
2019-04-01T06:33:01.023Z,12.87
2019-04-01T06:35:27.180Z,13.90
2019-04-01T06:37:53.431Z,14.33
2019-04-01T06:40:19.850Z,15.27
2019-04-01T06:42:46.106Z,14.73
2019-04-01T06:45:12.468Z,16.70
2019-04-01T06:47:38.653Z,17.27
2019-04-01T06:50:04.815Z,16.43
2019-04-01T06:52:31.275Z,17.73
2019-04-01T06:54:57.458Z,17.27
2019-04-01T06:57:23.612Z,15.97
2019-04-01T06:59:49.767Z,18.87
2019-04-01T07:02:15.957Z,19.40
2019-04-01T07:04:42.124Z,18.87
2019-04-01T07:07:18.821Z,18.33
2019-04-01T07:09:37.612Z,17.80
2019-04-01T07:12:03.814Z,17.70
2019-04-01T07:14:30.099Z,15.60
2019-04-01T07:16:56.304Z,16.37
2019-04-01T07:19:22.468Z,14.67
2019-04-01T07:21:48.676Z,15.07
2019-04-01T07:24:14.877Z,16.20
2019-04-01T07:26:41.179Z,15.53
2019-04-01T07:29:07.369Z,15.07
2019-04-01T07:31:33.677Z,16.20
2019-04-01T07:34:00.245Z,15.30
2019-04-01T07:36:26.415Z,15.83
2019-04-01T07:38:52.658Z,13.13
2019-04-01T07:41:18.840Z,15.10
2019-04-01T07:43:45.024Z,15.43
2019-04-01T07:46:11.454Z,16.63
2019-04-01T07:48:37.944Z,15.70
2019-04-01T07:51:07.084Z,16.63
2019-04-01T07:53:32.168Z,15.63
2019-04-01T07:55:58.358Z,16.07
2019-04-01T07:58:24.731Z,16.17
2019-04-01T08:00:52.782Z,16.43
2019-04-01T08:03:19.072Z,15.63
2019-04-01T08:05:45.211Z,15.77
2019-04-01T08:08:11.404Z,15.33
2019-04-01T08:10:37.612Z,16.40
2019-04-01T08:13:03.891Z,14.97
2019-04-01T08:15:30.098Z,14.67
2019-04-01T08:17:56.381Z,13.67
2019-04-01T08:20:22.577Z,12.40
2019-04-01T08:22:48.860Z,12.80
2019-04-01T08:25:15.023Z,10.53
2019-04-01T08:27:41.176Z,13.00
2019-04-01T08:30:08.100Z,12.43
2019-04-01T08:32:34.854Z,13.43
2019-04-01T08:35:01.836Z,13.13
2019-04-01T08:37:28.460Z,13.80
2019-04-01T08:39:54.628Z,13.73
2019-04-01T08:42:21.199Z,14.90
2019-04-01T08:44:47.504Z,13.60
2019-04-01T08:47:13.677Z,10.00
2019-04-01T08:49:39.843Z,11.37
2019-04-01T08:52:06.071Z,11.53
2019-04-01T08:54:32.430Z,11.00
2019-04-01T08:56:58.758Z,10.80
2019-04-01T08:59:24.980Z,9.80
2019-04-01T09:01:51.159Z,11.17
2019-04-01T09:04:17.345Z,12.00
2019-04-01T09:06:43.561Z,10.33
2019-04-01T09:09:09.728Z,12.53
2019-04-01T09:11:38.414Z,11.43
2019-04-01T09:14:04.016Z,10.53
2019-04-01T09:16:30.410Z,11.00
2019-04-01T09:18:56.579Z,11.23
2019-04-01T09:21:22.787Z,11.07
2019-04-01T09:23:51.973Z,12.23
2019-04-01T09:26:17.135Z,11.47
2019-04-01T09:28:43.359Z,11.10
2019-04-01T09:31:09.544Z,11.30
2019-04-01T09:33:35.747Z,9.10
2019-04-01T09:36:01.977Z,10.10
2019-04-01T09:38:28.151Z,9.70
2019-04-01T09:40:54.669Z,10.13
2019-04-01T09:43:20.982Z,9.20
2019-04-01T09:45:47.159Z,9.47
2019-04-01T09:48:13.479Z,8.93
2019-04-01T09:50:39.766Z,10.30
2019-04-01T09:53:05.927Z,10.43
2019-04-01T09:55:32.116Z,10.07
2019-04-01T09:57:58.410Z,10.40
2019-04-01T10:00:26.397Z,9.57
2019-04-01T10:02:52.552Z,8.53
2019-04-01T10:05:18.780Z,8.67
2019-04-01T10:07:45.167Z,8.97
2019-04-01T10:10:11.498Z,9.43
2019-04-01T10:12:39.710Z,9.20
2019-04-01T10:15:06.722Z,6.10
2019-04-01T10:17:35.637Z,8.53
2019-04-01T10:20:01.855Z,8.07
2019-04-01T10:22:28.052Z,7.73
2019-04-01T10:24:54.234Z,8.07
2019-04-01T10:27:20.452Z,7.63
2019-04-01T10:29:46.600Z,8.00
2019-04-01T10:32:12.772Z,7.83
2019-04-01T10:34:38.976Z,8.23
2019-04-01T10:37:05.164Z,7.50
2019-04-01T10:39:31.325Z,8.17
2019-04-01T10:41:57.557Z,8.00
2019-04-01T10:44:23.758Z,8.23
2019-04-01T10:46:50.085Z,8.17
2019-04-01T10:49:16.349Z,6.80
2019-04-01T10:51:42.544Z,7.77
2019-04-01T10:54:08.690Z,7.37
2019-04-01T10:56:36.048Z,7.27
2019-04-01T10:59:02.582Z,8.13
2019-04-01T11:01:28.837Z,6.30
2019-04-01T11:03:55.138Z,6.57
2019-04-01T11:06:21.362Z,7.23
2019-04-01T11:08:47.737Z,6.33
2019-04-01T11:11:13.944Z,7.87
2019-04-01T11:13:41.128Z,9.53
2019-04-01T11:16:07.408Z,8.37
2019-04-01T11:18:33.613Z,8.93
2019-04-01T11:20:59.792Z,7.50
2019-04-01T11:23:25.964Z,6.47
2019-04-01T11:25:52.184Z,7.20
2019-04-01T11:28:18.341Z,7.77
2019-04-01T11:30:44.682Z,6.50
2019-04-01T11:33:10.977Z,7.20
2019-04-01T11:35:37.152Z,6.23
2019-04-01T11:38:03.448Z,6.60
2019-04-01T11:40:29.761Z,6.07
2019-04-01T11:42:55.961Z,7.17
2019-04-01T11:45:22.678Z,6.10
2019-04-01T11:47:49.433Z,7.43
2019-04-01T11:50:16.021Z,6.13
2019-04-01T11:52:42.294Z,6.80
2019-04-01T11:55:09.136Z,6.77
2019-04-01T11:57:36.040Z,6.30
2019-04-01T12:00:10.115Z,5.57
2019-04-01T12:02:34.511Z,5.90
2019-04-01T12:05:00.773Z,5.87
2019-04-01T12:07:26.931Z,5.30
2019-04-01T12:09:53.179Z,5.73
2019-04-01T12:12:23.841Z,7.30
2019-04-01T12:14:47.847Z,6.43
2019-04-01T12:17:14.251Z,6.90
2019-04-01T12:19:40.514Z,7.07
2019-04-01T12:22:06.723Z,5.30
2019-04-01T12:24:33.223Z,5.10
2019-04-01T12:26:59.379Z,4.63
2019-04-01T12:29:25.535Z,5.50
2019-04-01T12:31:51.800Z,5.27
2019-04-01T12:34:18.746Z,5.90
2019-04-01T12:36:45.032Z,4.93
2019-04-01T12:39:11.371Z,6.10
2019-04-01T12:41:37.507Z,4.77
2019-04-01T12:44:03.790Z,5.20
2019-04-01T12:46:29.989Z,4.83
2019-04-01T12:48:56.258Z,4.97
2019-04-01T12:51:22.428Z,6.00
2019-04-01T12:53:48.621Z,5.60
2019-04-01T12:56:14.928Z,6.20
2019-04-01T12:58:41.115Z,6.53
2019-04-01T13:01:07.353Z,4.70
2019-04-01T13:03:33.519Z,5.87
2019-04-01T13:05:59.688Z,5.13
2019-04-01T13:08:25.894Z,5.50
2019-04-01T13:10:52.196Z,5.60
2019-04-01T13:13:18.362Z,5.63
2019-04-01T13:15:44.602Z,5.50
2019-04-01T13:18:10.781Z,4.50
2019-04-01T13:20:38.408Z,4.60
2019-04-01T13:23:04.928Z,5.17
2019-04-01T13:25:31.207Z,4.80
2019-04-01T13:27:57.567Z,4.50
2019-04-01T13:30:24.306Z,5.80
2019-04-01T13:32:51.164Z,5.70
2019-04-01T13:35:17.338Z,6.20
2019-04-01T13:37:43.549Z,5.47
2019-04-01T13:40:10.111Z,4.67
2019-04-01T13:42:36.372Z,5.77
2019-04-01T13:45:04.004Z,5.20
2019-04-01T13:47:30.160Z,5.03
2019-04-01T13:49:56.360Z,4.83
2019-04-01T13:52:22.584Z,4.93
2019-04-01T13:54:48.779Z,4.50
2019-04-01T13:57:14.965Z,5.33
2019-04-01T13:59:48.967Z,4.63
2019-04-01T14:02:09.360Z,4.30
2019-04-01T14:04:35.537Z,4.40
2019-04-01T14:07:01.756Z,3.87
2019-04-01T14:09:30.708Z,4.63
2019-04-01T14:11:56.095Z,4.77
2019-04-01T14:14:22.282Z,4.93
2019-04-01T14:16:48.489Z,4.47
2019-04-01T14:19:14.654Z,4.70
2019-04-01T14:21:40.835Z,5.23
2019-04-01T14:24:07.121Z,5.10
2019-04-01T14:26:33.392Z,5.47
2019-04-01T14:28:59.583Z,4.27
2019-04-01T14:31:25.747Z,4.60
2019-04-01T14:33:52.008Z,6.07
2019-04-01T14:36:18.199Z,4.37
2019-04-01T14:38:44.350Z,5.03
2019-04-01T14:41:10.637Z,3.97
2019-04-01T14:43:36.838Z,4.93
2019-04-01T14:46:03.020Z,5.00
2019-04-01T14:48:30.473Z,4.80
2019-04-01T14:50:57.112Z,4.80
2019-04-01T14:53:23.395Z,6.20
2019-04-01T14:55:49.580Z,5.30
2019-04-01T14:58:15.808Z,4.33
2019-04-01T15:00:41.972Z,5.00
2019-04-01T15:03:08.137Z,5.57
2019-04-01T15:05:34.375Z,4.97
2019-04-01T15:08:00.560Z,4.63
2019-04-01T15:10:26.721Z,6.33
2019-04-01T15:13:04.465Z,5.87
2019-04-01T15:15:20.999Z,6.83
2019-04-01T15:17:47.549Z,5.27
2019-04-01T15:20:15.656Z,5.43
2019-04-01T15:22:41.838Z,5.27
2019-04-01T15:25:08.129Z,5.93
2019-04-01T15:27:34.315Z,5.90
2019-04-01T15:30:00.584Z,6.00
2019-04-01T15:32:26.743Z,5.13
2019-04-01T15:34:53.056Z,6.40
2019-04-01T15:37:19.209Z,5.90
2019-04-01T15:39:47.216Z,6.17
2019-04-01T15:42:14.381Z,5.90
2019-04-01T15:44:41.003Z,5.57
2019-04-01T15:47:08.726Z,6.37
2019-04-01T15:49:35.232Z,6.70
2019-04-01T15:52:01.402Z,6.67
2019-04-01T15:54:27.587Z,6.83
2019-04-01T15:56:53.899Z,7.33
2019-04-01T15:59:20.096Z,8.40
2019-04-01T16:01:46.286Z,7.43
2019-04-01T16:04:14.837Z,8.27
2019-04-01T16:06:40.680Z,9.00
2019-04-01T16:09:07.465Z,9.23
2019-04-01T16:11:33.663Z,7.70
2019-04-01T16:13:59.940Z,9.77
2019-04-01T16:16:26.225Z,9.10
2019-04-01T16:18:52.554Z,8.27
2019-04-01T16:21:18.810Z,9.07
2019-04-01T16:23:45.012Z,7.97
2019-04-01T16:26:11.190Z,8.77
2019-04-01T16:28:37.352Z,8.90
2019-04-01T16:31:03.549Z,8.87
2019-04-01T16:33:30.439Z,8.43
2019-04-01T16:35:56.976Z,7.43
2019-04-01T16:38:23.197Z,10.53
2019-04-01T16:40:52.321Z,9.40
2019-04-01T16:43:17.628Z,9.47
2019-04-01T16:45:43.836Z,10.07
2019-04-01T16:48:10.073Z,9.73
2019-04-01T16:50:36.321Z,10.93
2019-04-01T16:53:03.419Z,12.00
2019-04-01T16:55:29.616Z,13.57
2019-04-01T16:57:55.868Z,12.90
2019-04-01T17:00:22.576Z,10.83
2019-04-01T17:02:50.029Z,10.60
2019-04-01T17:05:20.157Z,11.23
2019-04-01T17:07:46.319Z,11.53
2019-04-01T17:10:21.222Z,9.90
2019-04-01T17:12:47.369Z,12.30
2019-04-01T17:15:13.665Z,9.57
2019-04-01T17:17:39.884Z,10.93
2019-04-01T17:20:06.250Z,13.70
2019-04-01T17:22:32.480Z,13.33
2019-04-01T17:24:58.827Z,21.47
2019-04-01T17:27:25.007Z,25.77
2019-04-01T17:29:51.153Z,29.63
2019-04-01T17:32:17.393Z,29.30
2019-04-01T17:34:44.832Z,29.13
2019-04-01T17:37:11.207Z,34.03
2019-04-01T17:39:37.540Z,17.30
2019-04-01T17:42:04.189Z,13.77
2019-04-01T17:44:30.485Z,12.43
2019-04-01T17:46:56.704Z,14.17
2019-04-01T17:49:22.957Z,25.40
2019-04-01T17:51:49.148Z,16.43
2019-04-01T17:54:15.336Z,20.93
2019-04-01T17:56:41.555Z,18.87
2019-04-01T17:59:07.749Z,19.47
2019-04-01T18:01:34.070Z,20.53
2019-04-01T18:04:00.223Z,19.93
2019-04-01T18:06:26.399Z,18.10
2019-04-01T18:08:52.733Z,15.27
2019-04-01T18:11:18.888Z,10.70
2019-04-01T18:13:45.082Z,9.73
2019-04-01T18:16:11.420Z,12.47
2019-04-01T18:18:38.974Z,12.77
2019-04-01T18:21:05.495Z,15.23
2019-04-01T18:23:31.730Z,15.47
2019-04-01T18:25:58.061Z,15.43
2019-04-01T18:28:24.219Z,11.77
2019-04-01T18:30:50.449Z,12.70
2019-04-01T18:33:19.627Z,14.87
2019-04-01T18:35:45.058Z,12.80
2019-04-01T18:38:11.498Z,13.60
2019-04-01T18:40:37.679Z,13.70
2019-04-01T18:43:03.837Z,13.40
2019-04-01T18:45:30.035Z,15.10
2019-04-01T18:47:56.223Z,12.37
2019-04-01T18:50:22.476Z,12.87
2019-04-01T18:52:48.812Z,13.43
2019-04-01T18:55:15.001Z,14.00
2019-04-01T18:57:41.159Z,11.70
2019-04-01T19:00:09.004Z,12.83
2019-04-01T19:02:35.155Z,17.40
2019-04-01T19:05:01.407Z,10.90
2019-04-01T19:07:27.642Z,11.23
2019-04-01T19:10:05.559Z,14.57
2019-04-01T19:12:21.993Z,11.27
2019-04-01T19:14:48.219Z,12.70
2019-04-01T19:17:14.945Z,11.80
2019-04-01T19:19:42.418Z,11.73
2019-04-01T19:22:09.210Z,11.87
2019-04-01T19:24:35.399Z,11.97
2019-04-01T19:27:01.553Z,11.83
2019-04-01T19:29:27.889Z,11.67
2019-04-01T19:31:54.033Z,12.37
2019-04-01T19:34:20.188Z,9.83
2019-04-01T19:36:46.431Z,11.37
2019-04-01T19:39:12.621Z,10.33
2019-04-01T19:41:38.772Z,9.67
2019-04-01T19:44:04.974Z,10.67
2019-04-01T19:46:31.165Z,14.57
2019-04-01T19:48:57.420Z,12.87
2019-04-01T19:51:23.752Z,14.07
2019-04-01T19:53:49.940Z,14.40
2019-04-01T19:56:16.089Z,13.87
2019-04-01T19:58:42.276Z,13.43
2019-04-01T20:01:08.568Z,13.83
2019-04-01T20:03:34.758Z,13.80
2019-04-01T20:06:00.957Z,14.50
2019-04-01T20:08:27.148Z,16.03
2019-04-01T20:10:53.302Z,17.33
2019-04-01T20:13:19.503Z,16.87
2019-04-01T20:15:45.798Z,13.37
2019-04-01T20:18:12.054Z,13.23
2019-04-01T20:20:41.280Z,13.40
2019-04-01T20:23:06.403Z,11.43
2019-04-01T20:25:32.660Z,11.93
2019-04-01T20:27:58.994Z,12.23
2019-04-01T20:30:26.050Z,13.33
2019-04-01T20:32:52.212Z,11.67
2019-04-01T20:35:23.580Z,10.73
2019-04-01T20:37:46.648Z,11.53
2019-04-01T20:40:13.499Z,10.83
2019-04-01T20:42:39.690Z,10.70
2019-04-01T20:45:06.683Z,11.13
2019-04-01T20:47:32.833Z,11.47
2019-04-01T20:49:59.188Z,8.60
2019-04-01T20:52:25.442Z,10.23
2019-04-01T20:54:51.600Z,10.00
2019-04-01T20:57:17.892Z,10.73
2019-04-01T20:59:44.080Z,9.40
2019-04-01T21:02:10.271Z,10.40
2019-04-01T21:04:36.455Z,10.37
2019-04-01T21:07:02.647Z,12.23
2019-04-01T21:09:28.801Z,14.57
2019-04-01T21:11:54.998Z,11.93
2019-04-01T21:14:22.566Z,9.93
2019-04-01T21:16:49.178Z,10.90
2019-04-01T21:19:16.312Z,10.67
2019-04-01T21:21:42.732Z,10.70
2019-04-01T21:24:08.924Z,9.07
2019-04-01T21:26:35.225Z,9.90
2019-04-01T21:29:01.413Z,9.17
2019-04-01T21:31:27.598Z,10.67
2019-04-01T21:33:53.794Z,7.87
2019-04-01T21:36:19.979Z,8.33
2019-04-01T21:38:46.234Z,9.20
2019-04-01T21:41:12.426Z,8.83
2019-04-01T21:43:38.675Z,7.47
2019-04-01T21:46:04.831Z,8.07
2019-04-01T21:48:31.073Z,8.27
2019-04-01T21:50:57.260Z,7.60
2019-04-01T21:53:23.526Z,8.27
2019-04-01T21:55:49.720Z,7.60
2019-04-01T21:58:15.918Z,8.27
2019-04-01T22:00:52.777Z,8.30
2019-04-01T22:03:19.125Z,8.23
2019-04-01T22:05:45.325Z,7.70
2019-04-01T22:08:11.508Z,7.73
2019-04-01T22:10:37.762Z,7.43
2019-04-01T22:13:03.952Z,7.40
2019-04-01T22:15:30.265Z,8.03
2019-04-01T22:17:56.409Z,6.70
2019-04-01T22:20:22.669Z,7.47
2019-04-01T22:22:48.909Z,8.03
2019-04-01T22:25:15.095Z,7.17
2019-04-01T22:27:41.388Z,6.87
2019-04-01T22:30:08.505Z,6.77
2019-04-01T22:32:34.653Z,6.80
2019-04-01T22:35:00.806Z,6.67
2019-04-01T22:37:27.887Z,6.83
2019-04-01T22:39:54.212Z,6.57
2019-04-01T22:42:20.364Z,6.63
2019-04-01T22:44:46.586Z,6.00
2019-04-01T22:47:12.730Z,5.90
2019-04-01T22:49:38.882Z,6.13
2019-04-01T22:52:05.425Z,6.73
2019-04-01T22:54:32.567Z,5.23
2019-04-01T22:56:58.752Z,5.43
2019-04-01T22:59:24.956Z,5.77
2019-04-01T23:01:51.114Z,4.90
2019-04-01T23:04:17.401Z,5.90
2019-04-01T23:06:43.591Z,5.47
2019-04-01T23:09:09.754Z,5.63
2019-04-01T23:11:36.051Z,5.20
2019-04-01T23:14:02.477Z,6.23
2019-04-01T23:16:28.632Z,5.93
2019-04-01T23:18:54.779Z,6.27
2019-04-01T23:21:21.118Z,5.97
2019-04-01T23:23:47.262Z,6.07
2019-04-01T23:26:13.557Z,5.20
2019-04-01T23:28:39.784Z,5.90
2019-04-01T23:31:06.031Z,4.93
2019-04-01T23:33:32.213Z,5.70
2019-04-01T23:35:58.435Z,4.83
2019-04-01T23:38:24.635Z,5.73
2019-04-01T23:40:50.778Z,4.80
2019-04-01T23:43:17.024Z,3.73
2019-04-01T23:45:43.286Z,5.10
2019-04-01T23:48:09.539Z,3.83
2019-04-01T23:50:35.777Z,5.37
2019-04-01T23:53:02.260Z,5.00
2019-04-01T23:55:29.264Z,4.90
2019-04-01T23:57:56.027Z,5.87
